Time;durP1;ratioP1;P1;durP2;ratioP2;P2;SDS_P1;SDS_P2;PMS_P1;PMS_P2;Temp;Humidity;BMP_temperature;BMP_pressure;BME280_temperature;BME280_humidity;BME280_pressure;Samples;Min_cycle;Max_cycle;Signal;HPM_P1;HPM_P2
2021/08/11 00:00:45;;;;;;;16.67;10.43;;;640.60;2432.00;;;;;;4995432;28;20053;-83
2021/08/11 00:03:13;;;;;;;13.90;10.43;;;640.50;2432.00;;;;;;4994809;28;20088;-83
2021/08/11 00:05:52;;;;;;;13.00;9.43;;;640.70;2432.00;;;;;;4996015;28;20022;-83
2021/08/11 00:08:18;;;;;;;13.52;10.20;;;640.60;2432.00;;;;;;4995920;28;20062;-84
2021/08/11 00:10:46;;;;;;;15.55;10.02;;;;;;;;;;4994660;28;20068;-84
2021/08/11 00:13:13;;;;;;;12.88;9.82;;;;;;;;;;4995614;28;20042;-83
2021/08/11 00:15:39;;;;;;;19.65;10.02;;;;;;;;;;4994594;28;20014;-82
2021/08/11 00:18:05;;;;;;;13.10;10.65;;;;;;;;;;4994453;28;20026;-83
2021/08/11 00:20:31;;;;;;;11.80;10.43;;;;;;;;;;4994503;28;20046;-82
2021/08/11 00:22:57;;;;;;;13.48;9.55;;;;;;;;;;4994903;28;20018;-83
2021/08/11 00:25:26;;;;;;;15.90;10.88;;;;;;;;;;4995298;28;20022;-84
2021/08/11 00:27:52;;;;;;;14.48;9.70;;;;;;;;;;4995086;28;20034;-82
2021/08/11 00:30:18;;;;;;;14.18;10.52;;;;;;;;;;4993136;28;20475;-83
2021/08/11 00:32:44;;;;;;;15.80;10.32;;;;;;;;;;4993998;28;20025;-84
2021/08/11 00:35:17;;;;;;;15.48;10.00;;;;;;;;;;4993914;28;20021;-83
2021/08/11 00:37:43;;;;;;;17.38;10.50;;;;;;;;;;4994583;28;20030;-84
2021/08/11 00:40:10;;;;;;;13.75;10.40;;;;;;;;;;4994398;28;20046;-83
2021/08/11 00:42:37;;;;;;;14.95;10.10;;;;;;;;;;4994317;28;20014;-84
2021/08/11 00:45:04;;;;;;;10.95;9.70;;;;;;;;;;4992814;28;20034;-83
2021/08/11 00:47:33;;;;;;;21.70;11.48;;;;;;;;;;4993186;28;20022;-83
2021/08/11 00:49:59;;;;;;;12.30;10.38;;;;;;;;;;4992332;28;20030;-82
2021/08/11 00:52:25;;;;;;;12.30;9.75;;;;;;;;;;4993549;28;20026;-83
2021/08/11 00:54:52;;;;;;;13.38;10.20;;;;;;;;;;4996617;28;20019;-83
2021/08/11 00:57:19;;;;;;;13.32;9.73;;;;;;;;;;5005029;28;20025;-81
2021/08/11 00:59:46;;;;;;;15.27;9.93;;;;;;;;;;5007593;28;20041;-81
2021/08/11 01:02:14;;;;;;;11.70;9.88;;;;;;;;;;5009360;28;20023;-81
2021/08/11 01:04:40;;;;;;;14.45;10.30;;;;;;;;;;4992683;28;20042;-81
2021/08/11 01:07:08;;;;;;;13.35;10.00;;;;;;;;;;4994076;28;20054;-82
2021/08/11 01:09:34;;;;;;;14.48;10.20;;;;;;;;;;4987294;28;20037;-81
2021/08/11 01:12:00;;;;;;;13.13;10.05;;;;;;;;;;4991086;28;20028;-80
2021/08/11 01:14:28;;;;;;;12.98;9.95;;;;;;;;;;4990139;28;20448;-82
2021/08/11 01:16:55;;;;;;;13.85;10.02;;;;;;;;;;4993768;28;20050;-83
2021/08/11 01:19:20;;;;;;;16.38;10.38;;;615.00;2432.00;;;;;;4993028;28;20034;-82
2021/08/11 01:21:57;;;;;;;12.85;10.02;;;614.80;2432.00;;;;;;4994181;28;20022;-82
2021/08/11 01:24:35;;;;;;;13.68;10.30;;;614.80;2432.00;;;;;;4993289;28;20087;-83
2021/08/11 01:27:34;;;;;;;17.15;10.63;;;614.70;2432.00;;;;;;4995462;28;20046;-81
2021/08/11 01:30:00;;;;;;;15.30;10.00;;;614.50;2432.00;;;;;;4992686;28;20037;-83
2021/08/11 01:32:38;;;;;;;11.98;9.80;;;614.40;2432.00;;;;;;4988475;28;20018;-83
2021/08/11 01:35:09;;;;;;;15.13;10.20;;;614.60;2432.00;;;;;;4979546;28;20022;-84
2021/08/11 01:37:38;;;;;;;15.65;10.20;;;614.40;2432.00;;;;;;4978185;28;20453;-83
2021/08/11 01:40:06;;;;;;;18.15;10.82;;;614.50;2432.00;;;;;;4977976;28;20033;-83
2021/08/11 01:42:38;;;;;;;13.60;10.32;;;614.60;2432.00;;;;;;4990342;28;20033;-82
2021/08/11 01:45:13;;;;;;;16.55;10.30;;;614.50;2432.00;;;;;;4977795;28;20045;-84
2021/08/11 01:47:42;;;;;;;13.20;10.25;;;614.50;2432.00;;;;;;4977583;28;20093;-82
2021/08/11 01:50:11;;;;;;;13.50;10.25;;;614.50;2432.00;;;;;;4977653;28;20124;-84
2021/08/11 01:52:42;;;;;;;12.75;10.35;;;614.50;2432.00;;;;;;4977376;28;20359;-82
2021/08/11 01:55:10;;;;;;;19.55;10.43;;;614.50;2432.00;;;;;;4978193;28;20026;-83
2021/08/11 01:57:47;;;;;;;13.52;9.85;;;;;;;;;;4981128;28;20022;-82
2021/08/11 02:00:14;;;;;;;14.75;10.63;;;;;;;;;;4981031;28;20052;-83
2021/08/11 02:02:41;;;;;;;13.98;10.32;;;;;;;;;;4980614;28;20345;-83
2021/08/11 02:05:09;;;;;;;15.70;9.75;;;;;;;;;;4980734;28;20023;-83
2021/08/11 02:07:36;;;;;;;14.00;9.65;;;;;;;;;;4980562;28;20029;-82
2021/08/11 02:10:04;;;;;;;17.55;10.27;;;;;;;;;;4980810;28;20030;-84
2021/08/11 02:12:30;;;;;;;16.45;10.38;;;;;;;;;;4981590;28;20463;-83
2021/08/11 02:14:56;;;;;;;15.40;11.05;;;;;;;;;;4983528;28;20019;-84
2021/08/11 02:17:22;;;;;;;13.50;10.48;;;614.80;2432.00;;;;;;4980267;28;20050;-82
2021/08/11 02:19:48;;;;;;;12.35;11.02;;;614.60;2432.00;;;;;;4980299;28;20053;-83
2021/08/11 02:22:14;;;;;;;13.13;10.82;;;614.70;2432.00;;;;;;4980235;28;20018;-83
2021/08/11 02:24:41;;;;;;;22.05;11.27;;;614.60;2432.00;;;;;;4980483;28;20060;-83
2021/08/11 02:27:23;;;;;;;13.45;10.15;;;614.60;2432.00;;;;;;4980253;28;20459;-82
2021/08/11 02:29:54;;;;;;;11.57;10.05;;;614.50;2432.00;;;;;;4979623;28;20038;-83
2021/08/11 02:32:38;;;;;;;14.10;11.13;;;589.70;2432.00;;;;;;4979932;28;20054;-83
2021/08/11 02:35:13;;;;;;;15.38;11.27;;;589.70;2432.00;;;;;;4979752;28;20023;-83
2021/08/11 02:38:01;;;;;;;14.00;10.35;;;589.70;2432.00;;;;;;4980093;28;20487;-83
2021/08/11 02:40:58;;;;;;;14.93;9.95;;;589.70;2432.00;;;;;;4979673;28;20473;-85
2021/08/11 02:43:34;;;;;;;17.80;11.13;;;589.50;2432.00;;;;;;4979500;28;20483;-83
2021/08/11 02:46:22;;;;;;;13.52;10.75;;;589.60;2432.00;;;;;;4979688;28;20022;-84
2021/08/11 02:48:59;;;;;;;16.05;10.93;;;589.50;2432.00;;;;;;4979062;28;20372;-84
2021/08/11 02:51:35;;;;;;;12.27;10.38;;;589.60;2432.00;;;;;;4979867;28;20018;-83
2021/08/11 02:54:08;;;;;;;15.85;10.82;;;563.80;2432.00;;;;;;4979342;28;20022;-84
2021/08/11 02:56:34;;;;;;;14.60;11.32;;;589.50;2432.00;;;;;;4979586;28;20022;-84
2021/08/11 02:59:00;;;;;;;16.30;11.15;;;589.50;2432.00;;;;;;4979081;28;20124;-82
2021/08/11 03:01:31;;;;;;;12.38;11.05;;;589.60;2432.00;;;;;;4978859;28;20030;-84
2021/08/11 03:03:57;;;;;;;15.10;10.82;;;589.50;2432.00;;;;;;4978271;28;20492;-84
2021/08/11 03:06:24;;;;;;;13.38;10.48;;;589.40;2432.00;;;;;;4978768;28;20452;-82
2021/08/11 03:08:54;;;;;;;12.40;10.73;;;589.40;2432.00;;;;;;4979130;28;20023;-83
2021/08/11 03:11:20;;;;;;;12.00;10.68;;;589.20;2432.00;;;;;;4979156;28;20038;-83
2021/08/11 03:13:47;;;;;;;11.75;10.55;;;589.30;2432.00;;;;;;4979631;28;20125;-82
2021/08/11 03:16:14;;;;;;;14.23;11.10;;;588.90;2432.00;;;;;;4978935;28;20457;-84
2021/08/11 03:18:40;;;;;;;14.23;10.77;;;563.60;2432.00;;;;;;4979208;28;20112;-83
2021/08/11 03:21:06;;;;;;;12.48;10.25;;;589.30;2432.00;;;;;;4979490;28;20022;-84
2021/08/11 03:23:32;;;;;;;14.23;10.55;;;589.50;2432.00;;;;;;4979188;28;20024;-83
2021/08/11 03:25:58;;;;;;;13.57;10.30;;;589.40;2432.00;;;;;;4979302;28;20055;-84
2021/08/11 03:28:24;;;;;;;11.82;10.63;;;589.20;2432.00;;;;;;4979348;28;20074;-83
2021/08/11 03:30:50;;;;;;;13.15;10.38;;;589.20;2432.00;;;;;;4978928;28;20034;-84
2021/08/11 03:33:16;;;;;;;19.17;11.88;;;589.40;2432.00;;;;;;4979029;28;20029;-82
2021/08/11 03:35:42;;;;;;;11.75;10.52;;;589.40;2432.00;;;;;;4996002;28;20049;-83
2021/08/11 03:38:10;;;;;;;14.73;10.13;;;589.30;2432.00;;;;;;4979183;28;20479;-84
2021/08/11 03:40:39;;;;;;;13.40;10.52;;;589.20;2432.00;;;;;;4978936;28;20037;-83
2021/08/11 03:43:05;;;;;;;15.15;10.70;;;589.20;2432.00;;;;;;4978660;28;20057;-83
2021/08/11 03:45:33;;;;;;;12.50;11.05;;;589.20;2432.00;;;;;;4978801;28;20042;-83
2021/08/11 03:47:59;;;;;;;17.02;11.85;;;589.40;2432.00;;;;;;4978725;28;20117;-84
2021/08/11 03:50:25;;;;;;;15.20;11.63;;;589.30;2432.00;;;;;;4978382;28;20125;-83
2021/08/11 03:52:52;;;;;;;13.85;10.77;;;589.40;2432.00;;;;;;4978310;28;20031;-83
2021/08/11 03:55:18;;;;;;;13.68;11.35;;;589.20;2432.00;;;;;;4978549;28;20022;-83
2021/08/11 03:57:44;;;;;;;20.95;12.20;;;589.10;2432.00;;;;;;4978398;28;20022;-83
2021/08/11 04:00:11;;;;;;;15.30;11.57;;;589.00;2432.00;;;;;;4978304;28;20030;-83
2021/08/11 04:02:37;;;;;;;16.05;11.63;;;589.10;2432.00;;;;;;4978416;28;20100;-83
2021/08/11 04:05:08;;;;;;;14.93;11.23;;;589.20;2432.00;;;;;;4978348;28;20034;-83
2021/08/11 04:07:37;;;;;;;18.90;12.30;;;589.30;2432.00;;;;;;4978285;28;20026;-84
2021/08/11 04:10:09;;;;;;;17.50;12.52;;;589.30;2432.00;;;;;;4978174;28;20034;-83
2021/08/11 04:12:35;;;;;;;21.08;12.23;;;588.90;2432.00;;;;;;4978289;28;20456;-83
2021/08/11 04:15:01;;;;;;;13.98;11.57;;;589.00;2432.00;;;;;;4978057;28;20041;-84
2021/08/11 04:17:27;;;;;;;16.13;10.75;;;589.50;2432.00;;;;;;4977985;28;20026;-83
2021/08/11 04:19:53;;;;;;;15.73;11.50;;;589.40;2432.00;;;;;;4995412;28;20065;-84
2021/08/11 04:22:18;;;;;;;16.85;11.52;;;589.30;2432.00;;;;;;4978141;28;20535;-84
2021/08/11 04:24:45;;;;;;;16.20;12.55;;;589.50;2432.00;;;;;;4978051;28;20054;-84
2021/08/11 04:27:11;;;;;;;16.58;11.85;;;588.80;2432.00;;;;;;4977810;28;20121;-83
2021/08/11 04:29:37;;;;;;;18.05;11.63;;;;;;;;;;4978199;28;20035;-83
2021/08/11 04:32:03;;;;;;;17.10;12.18;;;;;;;;;;4978358;28;20022;-84
2021/08/11 04:34:30;;;;;;;18.70;11.55;;;;;;;;;;4978162;28;20101;-83
2021/08/11 04:36:56;;;;;;;14.15;10.82;;;;;;;;;;4977991;28;20022;-83
2021/08/11 04:39:23;;;;;;;14.50;10.77;;;;;;;;;;4978072;28;20030;-84
2021/08/11 04:41:49;;;;;;;17.67;11.15;;;;;;;;;;4977721;28;20057;-83
2021/08/11 04:44:15;;;;;;;16.33;10.60;;;;;;;;;;4977452;28;20353;-83
2021/08/11 04:46:41;;;;;;;17.20;11.63;;;;;;;;;;4978275;28;20482;-84
2021/08/11 04:49:08;;;;;;;15.75;11.48;;;;;;;;;;4977247;28;20030;-84
2021/08/11 04:51:35;;;;;;;14.32;12.50;;;;;;;;;;4978141;28;20022;-83
2021/08/11 04:54:01;;;;;;;16.20;11.38;;;;;;;;;;4977607;28;20023;-82
2021/08/11 04:56:27;;;;;;;20.83;11.20;;;;;;;;;;4977955;28;20026;-82
2021/08/11 04:59:01;;;;;;;16.17;12.25;;;;;;;;;;4974096;28;20026;-82
2021/08/11 05:01:27;;;;;;;19.30;11.10;;;;;;;;;;4977324;28;20482;-83
2021/08/11 05:03:53;;;;;;;13.07;10.52;;;;;;;;;;4989907;28;20125;-83
2021/08/11 05:06:19;;;;;;;17.20;12.13;;;;;;;;;;4996822;28;20018;-82
2021/08/11 05:08:45;;;;;;;17.83;12.18;;;;;;;;;;4997143;28;20030;-83
2021/08/11 05:11:12;;;;;;;20.92;11.13;;;;;;;;;;4996851;28;20112;-83
2021/08/11 05:13:38;;;;;;;15.35;11.13;;;;;;;;;;4997160;28;20373;-84
2021/08/11 05:16:04;;;;;;;23.17;12.60;;;;;;;;;;4997165;28;20014;-82
2021/08/11 05:18:32;;;;;;;19.35;12.43;;;;;;;;;;4996854;28;20017;-82
2021/08/11 05:20:58;;;;;;;15.73;11.60;;;;;;;;;;4997060;28;20018;-83
2021/08/11 05:23:26;;;;;;;13.38;10.90;;;;;;;;;;4997159;28;20368;-82
2021/08/11 05:25:52;;;;;;;19.88;11.40;;;;;;;;;;4997294;28;20022;-84
2021/08/11 05:28:29;;;;;;;23.17;13.65;;;;;;;;;;4996912;28;20046;-82
2021/08/11 05:34:32;;;;;;;19.98;13.23;;;;;;;;;;4956862;29;20465;-82
2021/08/11 05:40:19;;;;;;;;;;;;;;;;;;;;;
2021/08/11 05:43:28;;;;;;;14.88;11.40;;;;;;;;;;4957641;29;20111;-82
2021/08/11 05:46:00;;;;;;;17.27;11.10;;;;;;;;;;4976819;28;20054;-82
2021/08/11 05:48:29;;;;;;;14.85;10.85;;;;;;;;;;4980003;28;20034;-83
2021/08/11 05:50:57;;;;;;;13.57;10.98;;;;;;;;;;5011270;28;20026;-84
2021/08/11 05:53:24;;;;;;;14.63;10.55;;;;;;;;;;5000169;28;20088;-82
2021/08/11 05:56:17;;;;;;;17.50;11.75;;;;;;;;;;5000343;28;20025;-83
2021/08/11 05:58:45;;;;;;;15.63;11.27;;;;;;;;;;5000429;28;20048;-83
2021/08/11 06:01:24;;;;;;;14.65;10.70;;;;;;;;;;5000026;28;20418;-82
2021/08/11 06:03:56;;;;;;;12.25;10.65;;;;;;;;;;4995637;28;20380;-83
2021/08/11 06:06:28;;;;;;;14.90;11.40;;;;;;;;;;4996523;28;20033;-82
2021/08/11 06:09:01;;;;;;;12.27;10.45;;;;;;;;;;4996199;28;20124;-83
2021/08/11 06:11:28;;;;;;;15.10;11.48;;;;;;;;;;4997117;28;20019;-83
2021/08/11 06:13:56;;;;;;;13.70;10.70;;;;;;;;;;4996346;28;20034;-82
2021/08/11 06:16:28;;;;;;;13.77;10.57;;;;;;;;;;4996461;28;20369;-83
2021/08/11 06:18:59;;;;;;;19.63;10.63;;;;;;;;;;4996099;28;20109;-83
2021/08/11 06:21:27;;;;;;;18.80;10.48;;;;;;;;;;4996145;28;20037;-82
2021/08/11 06:23:54;;;;;;;22.35;12.70;;;;;;;;;;4996323;28;20023;-83
2021/08/11 06:26:23;;;;;;;17.00;10.15;;;;;;;;;;4980172;28;20083;-84
2021/08/11 06:28:49;;;;;;;20.40;11.55;;;;;;;;;;4995635;28;20470;-83
2021/08/11 06:31:21;;;;;;;16.10;11.43;;;;;;;;;;4996141;28;20018;-82
2021/08/11 06:33:47;;;;;;;16.35;11.45;;;;;;;;;;4979690;28;20019;-82
2021/08/11 06:36:13;;;;;;;16.95;11.35;;;;;;;;;;4995581;28;20041;-83
2021/08/11 06:38:50;;;;;;;19.38;12.32;;;;;;;;;;4996174;28;20133;-83
2021/08/11 06:41:45;;;;;;;20.23;10.77;;;;;;;;;;4995060;28;20018;-84
2021/08/11 06:44:11;;;;;;;18.55;10.88;;;666.40;2432.00;;;;;;4994131;28;20117;-82
2021/08/11 06:46:47;;;;;;;15.57;10.18;;;666.20;2432.00;;;;;;4996044;28;20112;-83
2021/08/11 06:49:15;;;;;;;21.23;11.52;;;666.10;2432.00;;;;;;4996142;28;20113;-82
2021/08/11 06:51:49;;;;;;;14.25;12.32;;;666.20;2432.00;;;;;;4995524;28;20018;-81
2021/08/11 06:54:15;;;;;;;21.45;10.27;;;666.30;2432.00;;;;;;4996054;28;20474;-82
2021/08/11 06:56:41;;;;;;;15.23;10.77;;;666.50;2432.00;;;;;;4995585;28;20023;-83
2021/08/11 06:59:07;;;;;;;22.88;11.35;;;691.20;2432.00;;;;;;4996009;28;20370;-82
2021/08/11 07:01:33;;;;;;;16.13;10.25;;;691.20;2432.00;;;;;;4995400;28;20026;-83
2021/08/11 07:03:59;;;;;;;12.70;10.23;;;691.20;2432.00;;;;;;4999646;28;20046;-82
2021/08/11 07:06:25;;;;;;;14.48;11.38;;;691.30;2432.00;;;;;;5019859;28;20021;-82
2021/08/11 07:08:51;;;;;;;14.77;9.70;;;691.40;2432.00;;;;;;5019435;28;20010;-82
2021/08/11 07:11:18;;;;;;;14.27;9.35;;;691.60;2432.00;;;;;;5019200;28;20022;-80
2021/08/11 07:13:46;;;;;;;10.30;9.05;;;691.50;2432.00;;;;;;5015715;28;20018;-83
2021/08/11 07:16:12;;;;;;;12.73;10.48;;;691.60;2432.00;;;;;;5001674;28;20034;-83
2021/08/11 07:18:38;;;;;;;14.73;10.18;;;691.60;2432.00;;;;;;4996853;28;20495;-82
2021/08/11 07:21:04;;;;;;;14.80;9.07;;;691.90;2432.00;;;;;;4996456;28;20022;-83
2021/08/11 07:23:33;;;;;;;14.82;9.45;;;692.10;2432.00;;;;;;4996433;28;20460;-82
2021/08/11 07:26:26;;;;;;;13.32;9.02;;;692.00;2432.00;;;;;;4996821;28;20069;-83
2021/08/11 07:29:23;;;;;;;13.77;8.68;;;716.80;2432.00;;;;;;4996812;28;20030;-83
2021/08/11 07:31:52;;;;;;;13.50;8.82;;;716.90;2432.00;;;;;;4997125;28;20177;-85
2021/08/11 07:38:03;;;;;;;16.30;10.20;;;717.30;2432.00;;;;;;4995363;28;20081;-82
2021/08/11 07:41:01;;;;;;;12.63;7.75;;;717.50;2432.00;;;;;;4994954;28;20125;-82
2021/08/11 07:44:03;;;;;;;15.05;9.52;;;717.50;2432.00;;;;;;4992540;28;20558;-83
2021/08/11 07:47:06;;;;;;;15.95;8.57;;;717.60;2432.00;;;;;;4977008;28;20117;-82
2021/08/11 07:49:32;;;;;;;15.60;7.90;;;717.60;2432.00;;;;;;4973680;28;20046;-82
2021/08/11 07:51:58;;;;;;;16.95;10.43;;;742.50;2432.00;;;;;;4976668;28;20375;-82
2021/08/11 07:54:24;;;;;;;15.73;8.98;;;742.60;2432.00;;;;;;4976583;28;20395;-81
2021/08/11 07:56:50;;;;;;;12.00;7.93;;;742.50;2432.00;;;;;;4976790;28;20468;-83
2021/08/11 07:59:15;;;;;;;13.40;7.57;;;742.50;2432.00;;;;;;4977030;28;20431;-83
2021/08/11 08:01:41;;;;;;;14.02;7.82;;;742.50;2432.00;;;;;;4980690;28;20026;-82
2021/08/11 08:04:07;;;;;;;13.18;8.40;;;742.50;2432.00;;;;;;4999183;28;20487;-83
2021/08/11 08:06:33;;;;;;;14.75;8.25;;;742.40;2432.00;;;;;;4996374;28;20033;-83
2021/08/11 08:08:59;;;;;;;13.38;8.95;;;742.40;2432.00;;;;;;4996163;28;20046;-83
2021/08/11 08:11:24;;;;;;;11.65;7.70;;;742.60;2432.00;;;;;;4996294;28;20025;-82
2021/08/11 08:13:50;;;;;;;11.18;8.23;;;743.00;2432.00;;;;;;4996391;28;20064;-83
2021/08/11 08:16:16;;;;;;;13.10;7.63;;;743.10;2432.00;;;;;;4997789;28;20024;-81
2021/08/11 08:18:42;;;;;;;15.77;7.55;;;743.20;2432.00;;;;;;4997159;28;20022;-82
2021/08/11 08:21:08;;;;;;;14.35;10.27;;;768.10;2432.00;;;;;;4997353;28;20113;-81
2021/08/11 08:23:34;;;;;;;9.65;7.82;;;768.10;2432.00;;;;;;4997330;28;20025;-84
2021/08/11 08:26:00;;;;;;;12.07;8.43;;;743.30;2406.40;;;;;;4997528;28;20029;-82
2021/08/11 08:28:31;;;;;;;12.20;8.45;;;743.30;2432.00;;;;;;4997112;28;20022;-83
2021/08/11 08:30:57;;;;;;;15.53;9.03;;;768.30;2432.00;;;;;;5001014;28;20033;-83
2021/08/11 08:33:23;;;;;;;11.65;7.75;;;768.50;2432.00;;;;;;5014756;28;20129;-83
2021/08/11 08:35:48;;;;;;;13.50;8.93;;;768.60;2380.80;;;;;;4997894;28;20022;-84
2021/08/11 08:38:18;;;;;;;9.68;7.78;;;768.70;2380.80;;;;;;4997253;28;20098;-83
2021/08/11 08:40:46;;;;;;;13.57;7.82;;;768.90;2380.80;;;;;;4997212;28;20369;-83
2021/08/11 08:43:12;;;;;;;14.75;9.85;;;793.70;2380.80;;;;;;4997406;28;20108;-82
2021/08/11 08:45:42;;;;;;;16.70;11.20;;;793.60;2329.60;;;;;;4999682;28;20036;-84
2021/08/11 08:48:08;;;;;;;16.20;10.73;;;793.90;2355.20;;;;;;4997931;28;20040;-83
2021/08/11 08:50:35;;;;;;;13.75;8.98;;;793.90;2304.00;;;;;;4997071;28;20531;-84
2021/08/11 08:53:03;;;;;;;12.55;8.23;;;793.80;2278.40;;;;;;4996843;28;20028;-81
2021/08/11 08:55:30;;;;;;;9.50;8.02;;;793.80;2278.40;;;;;;4996524;28;20028;-82
2021/08/11 08:57:56;;;;;;;15.05;9.55;;;768.60;2278.40;;;;;;5015660;28;20017;-81
2021/08/11 09:00:23;;;;;;;19.80;10.18;;;794.20;2304.00;;;;;;5017758;28;20027;-78
2021/08/11 09:02:49;;;;;;;15.10;10.85;;;819.30;2252.80;;;;;;5017363;28;20029;-78
2021/08/11 09:05:15;;;;;;;14.25;9.38;;;819.60;2201.60;;;;;;5013746;28;20514;-82
2021/08/11 09:07:46;;;;;;;15.27;8.27;;;819.80;2176.00;;;;;;5021333;28;20090;-81
2021/08/11 09:10:23;;;;;;;9.07;7.75;;;819.90;2150.40;;;;;;5019669;28;20067;-80
2021/08/11 09:12:51;;;;;;;13.85;7.85;;;820.10;2124.80;;;;;;5020633;28;20046;-79
2021/08/11 09:15:38;;;;;;;9.25;8.23;;;844.80;2176.00;;;;;;5011109;28;20024;-82
2021/08/11 09:18:11;;;;;;;14.27;8.10;;;844.90;2124.80;;;;;;5001307;28;20080;-83
2021/08/11 09:20:37;;;;;;;14.10;9.05;;;820.10;2099.20;;;;;;5000889;28;20036;-82
2021/08/11 09:23:04;;;;;;;10.95;6.82;;;820.00;2099.20;;;;;;5001158;28;20033;-82
2021/08/11 09:25:55;;;;;;;11.30;6.60;;;820.10;2048.00;;;;;;5000220;28;21276;-83
2021/08/11 09:31:32;;;;;;;23.98;9.63;;;819.80;2073.60;;;;;;5016273;28;20041;-81
2021/08/11 09:34:03;;;;;;;10.55;7.25;;;845.10;2099.20;;;;;;5033321;28;20080;-83
2021/08/11 09:36:56;;;;;;;;;;;845.30;2073.60;;;;;;4999908;28;20393;-86
2021/08/11 09:39:45;;;;;;;12.00;6.97;;;845.20;2048.00;;;;;;5022618;28;19901;-83
2021/08/11 09:42:33;;;;;;;12.35;6.60;;;845.20;2048.00;;;;;;4999137;28;20022;-81
2021/08/11 09:45:19;;;;;;;9.27;6.88;;;845.20;2048.00;;;;;;4999403;28;20026;-83
2021/08/11 09:48:00;;;;;;;15.50;8.23;;;844.80;2048.00;;;;;;4999545;28;20103;-81
2021/08/11 09:51:12;;;;;;;7.40;6.50;;;844.90;2048.00;;;;;;5002755;28;20109;-85
2021/08/11 09:57:12;;;;;;;13.05;6.18;;;845.30;1996.80;;;;;;5016038;28;20095;-85
2021/08/11 10:00:25;;;;;;;8.25;5.60;;;845.20;1996.80;;;;;;5000138;28;20434;-86
2021/08/11 10:03:11;;;;;;;12.68;6.40;;;845.30;1996.80;;;;;;4961700;28;20026;-86
2021/08/11 10:06:30;;;;;;;13.00;8.70;;;845.60;1971.20;;;;;;4976533;28;20133;-87
2021/08/11 10:09:16;;;;;;;10.50;5.85;;;870.60;1920.00;;;;;;4977370;28;20031;-83
2021/08/11 10:11:59;;;;;;;12.82;6.45;;;870.70;1868.80;;;;;;4976728;28;20093;-85
2021/08/11 10:14:47;;;;;;;10.27;6.05;;;870.90;1868.80;;;;;;4976880;28;20380;-84
2021/08/11 10:17:47;;;;;;;10.77;6.47;;;870.70;1894.40;;;;;;4976981;28;20022;-84
2021/08/11 10:20:16;;;;;;;8.85;5.78;;;871.30;1868.80;;;;;;4976558;28;20015;-83
2021/08/11 10:22:52;;;;;;;12.02;5.65;;;896.20;1817.60;;;;;;4992712;28;20023;-85
2021/08/11 10:25:18;;;;;;;23.45;6.45;;;871.30;1792.00;;;;;;4976577;28;20086;-85
2021/08/11 10:27:45;;;;;;;9.70;4.68;;;896.60;1715.20;;;;;;4976817;28;20015;-85
2021/08/11 10:30:12;;;;;;;11.20;4.55;;;896.60;1638.40;;;;;;4993595;28;20057;-83
2021/08/11 10:32:39;;;;;;;7.63;4.40;;;921.90;1561.60;;;;;;4976712;28;20042;-84
2021/08/11 10:35:06;;;;;;;9.13;5.75;;;921.60;1536.00;;;;;;4976843;28;20046;-84
2021/08/11 10:37:34;;;;;;;11.25;5.25;;;921.80;1484.80;;;;;;4983191;28;20023;-82
2021/08/11 10:40:01;;;;;;;8.00;4.97;;;922.00;1459.20;;;;;;5003909;28;20019;-82
2021/08/11 10:42:30;;;;;;;10.10;4.70;;;922.10;1459.20;;;;;;5003943;28;20030;-83
2021/08/11 10:45:02;;;;;;;14.32;4.25;;;922.30;1433.60;;;;;;4994960;28;20035;-85
2021/08/11 10:58:02;;;;;;;9.90;4.60;;;896.80;1433.60;;;;;;4881301;29;20611;-85
2021/08/11 11:07:40;;;;;;;6.00;4.25;;;896.60;1408.00;;;;;;4882638;29;20044;-89
2021/08/11 11:11:03;;;;;;;;;;;;;;;;;;;;;
2021/08/11 11:49:29;;;;;;;9.57;5.78;;;948.00;1331.20;;;;;;5213817;23;20091;-84
2021/08/11 11:52:07;;;;;;;7.80;5.13;;;948.10;1331.20;;;;;;4993462;28;20033;-85
2021/08/11 12:15:29;;;;;;;8.18;4.57;;;973.60;1203.20;;;;;;5263328;23;20368;-86
2021/08/11 12:28:07;;;;;;;7.90;5.40;;;998.80;1254.40;;;;;;4991792;28;20087;-86
2021/08/11 12:30:33;;;;;;;;;;;998.80;1203.20;;;;;;4997946;28;20124;-86
2021/08/11 12:32:59;;;;;;;8.15;4.78;;;998.70;1177.60;;;;;;4997156;28;19906;-86
2021/08/11 12:35:25;;;;;;;7.20;4.97;;;998.40;1126.40;;;;;;4997853;28;20367;-88
2021/08/11 12:37:52;;;;;;;7.28;5.40;;;998.60;1100.80;;;;;;4997999;28;20021;-86
2021/08/11 12:51:26;;;;;;;8.55;4.80;;;998.80;1100.80;;;;;;6005922;23;20237;-86
2021/08/11 12:54:06;;;;;;;8.45;5.47;;;998.90;1100.80;;;;;;4997570;28;20049;-86
2021/08/11 12:56:33;;;;;;;8.10;5.25;;;998.90;1075.20;;;;;;4997350;28;20021;-84
2021/08/11 12:59:06;;;;;;;7.05;4.93;;;998.80;1049.60;;;;;;4997036;28;20026;-84
2021/08/11 13:01:42;;;;;;;8.65;3.90;;;998.80;1049.60;;;;;;5001154;28;20061;-86
2021/08/11 13:04:23;;;;;;;6.15;3.90;;;998.80;1075.20;;;;;;4997984;28;20022;-85
2021/08/11 13:06:53;;;;;;;8.57;4.40;;;998.70;1075.20;;;;;;4997231;28;20032;-84
2021/08/11 13:09:25;;;;;;;5.53;4.32;;;998.70;1100.80;;;;;;4997458;28;20025;-85
2021/08/11 13:12:00;;;;;;;8.80;5.22;;;998.80;1100.80;;;;;;4997291;28;20018;-85
2021/08/11 13:14:51;;;;;;;8.15;4.65;;;998.50;1100.80;;;;;;4997206;28;20022;-85
2021/08/11 13:17:31;;;;;;;11.00;5.27;;;998.40;1126.40;;;;;;4995507;28;20041;-84
2021/08/11 13:20:21;;;;;;;6.77;3.67;;;998.40;1177.60;;;;;;4996310;28;20022;-84
2021/08/11 13:23:24;;;;;;;7.50;4.32;;;973.70;1126.40;;;;;;4996909;28;20270;-85
2021/08/11 13:26:20;;;;;;;7.60;4.03;;;998.40;1152.00;;;;;;4996423;28;20048;-84
2021/08/11 13:29:40;;;;;;;8.98;4.43;;;973.70;1152.00;;;;;;4994842;28;20041;-85
2021/08/11 13:32:21;;;;;;;8.18;4.32;;;973.70;1152.00;;;;;;4996577;28;20025;-84
2021/08/11 13:34:48;;;;;;;5.80;4.18;;;973.70;1177.60;;;;;;4996000;28;20014;-84
2021/08/11 13:37:14;;;;;;;9.18;5.03;;;998.40;1177.60;;;;;;4996385;28;20149;-83
2021/08/11 13:39:40;;;;;;;9.43;5.47;;;998.40;1177.60;;;;;;4996539;28;20072;-84
2021/08/11 13:42:08;;;;;;;9.60;4.43;;;973.40;1152.00;;;;;;4996601;28;20025;-84
2021/08/11 13:44:34;;;;;;;9.93;5.82;;;973.50;1126.40;;;;;;4996744;28;20076;-83
2021/08/11 13:47:00;;;;;;;12.00;5.68;;;973.40;1152.00;;;;;;4996552;28;20379;-84
2021/08/11 13:49:29;;;;;;;7.32;5.47;;;973.30;1152.00;;;;;;4996585;28;20352;-84
2021/08/11 13:51:55;;;;;;;8.75;4.75;;;973.70;1152.00;;;;;;4998552;28;20045;-83
2021/08/11 13:54:22;;;;;;;10.80;5.13;;;973.70;1152.00;;;;;;5000212;28;20022;-83
2021/08/11 13:56:52;;;;;;;7.22;3.90;;;973.60;1177.60;;;;;;5000275;28;20022;-84
2021/08/11 13:59:19;;;;;;;8.65;4.85;;;973.50;1177.60;;;;;;5000123;28;20021;-83
2021/08/11 14:01:46;;;;;;;8.73;3.58;;;973.20;1152.00;;;;;;4999644;28;20452;-83
2021/08/11 14:04:12;;;;;;;9.07;5.45;;;973.30;1126.40;;;;;;4999935;28;20352;-84
2021/08/11 14:06:39;;;;;;;8.23;4.50;;;973.40;1152.00;;;;;;5000160;28;20029;-83
2021/08/11 14:09:05;;;;;;;6.65;3.88;;;973.50;1152.00;;;;;;4999756;28;20022;-84
2021/08/11 14:11:32;;;;;;;7.05;4.13;;;973.60;1152.00;;;;;;5000090;28;20030;-84
2021/08/11 14:13:58;;;;;;;8.30;6.70;;;973.50;1152.00;;;;;;5000041;28;20028;-83
2021/08/11 14:16:25;;;;;;;9.32;5.53;;;973.60;1126.40;;;;;;4999641;28;20036;-85
2021/08/11 14:18:51;;;;;;;7.47;4.68;;;973.60;1177.60;;;;;;4999843;28;20029;-83
2021/08/11 14:21:18;;;;;;;12.77;6.38;;;973.40;1126.40;;;;;;4999772;28;20018;-84
2021/08/11 14:23:44;;;;;;;8.63;5.95;;;973.30;1100.80;;;;;;4999179;28;20025;-86
2021/08/11 14:26:10;;;;;;;9.88;5.75;;;973.30;1126.40;;;;;;5001409;28;20025;-84
2021/08/11 14:31:58;;;;;;;7.40;3.80;;;973.20;1075.20;;;;;;5017118;28;20033;-85
2021/08/11 14:34:24;;;;;;;5.47;3.63;;;973.00;1100.80;;;;;;5000116;28;20018;-84
2021/08/11 14:36:50;;;;;;;7.40;4.40;;;972.80;1075.20;;;;;;4999075;28;20167;-84
2021/08/11 14:39:16;;;;;;;6.80;4.45;;;972.80;1126.40;;;;;;4999136;28;20101;-84
2021/08/11 14:41:42;;;;;;;9.73;5.07;;;973.00;1152.00;;;;;;4999475;28;20021;-84
2021/08/11 14:44:08;;;;;;;5.05;3.53;;;972.80;1075.20;;;;;;4999673;28;20021;-84
2021/08/11 14:46:34;;;;;;;8.10;4.80;;;973.00;1049.60;;;;;;4999475;28;20341;-85
2021/08/11 14:49:00;;;;;;;7.47;5.30;;;973.20;1049.60;;;;;;4999245;28;20022;-84
2021/08/11 14:51:26;;;;;;;8.30;4.10;;;973.20;1024.00;;;;;;4998705;28;20025;-81
2021/08/11 14:53:52;;;;;;;9.90;4.28;;;973.10;1100.80;;;;;;5002707;28;20088;-85
2021/08/11 14:56:19;;;;;;;7.18;4.07;;;973.10;1075.20;;;;;;4999545;28;20113;-85
2021/08/11 14:58:45;;;;;;;5.63;4.20;;;973.20;1075.20;;;;;;4999256;28;20033;-85